Kasota, Minnesota
Current Conditions -  °F | °C
As of 3:15 AM on Wednesday 28 Jan 2015 (Local Time) from KMKT Reporting Station
Overcast Overcast  
Wind Chill: 18°   Ceiling: 600
Heat Index: 30°   Visibility: 7mi
Dew Point: 27°   Wind: 20mph
Humidity: 86%   Direction: 140°SE
Pressure: 30.03"   Gusts: NA
Location:  44.29°N, 93.96°W
Report Text: KMKT 280915Z AUTO 14017KT 7SM OVC006 M01/M03 A3003 RMK AO1
Loading
Personal Weather Stations






























Interactive Weather Map New forecast layout! Learn more

10-Day Weather Forecast

Advertisements
Track Severe Weather on mobile